CheckWX is a tool to help pilots better visualize weather data.  It is not intended as a substitute for an official pre-flight weather briefing.

05:56:50 UTC

KCKZ METAR
Pennridge Airport
Perkasie, Pennsylvania, USA
Current

22 mins ago

KCKZ 070535Z AUTO 33007KT 320V020 10SM CLR 01/M04 A3019 RMK AO2
Observed
Dec-7 @ 05:35 UTC
Wind
  • 330° at 7 KTS
Visibility
10 SM
Flight Rules
VFR
Cloud Levels
  • Clear skies
Temperature
C / 34°F
Dewpoint
-4°C / 25°F
Humidity
70%
Altimeter
30.19" Hg
Pressure
1022.32 hPa
Previous

42 mins ago

KCKZ 070515Z AUTO 35003KT 10SM CLR 02/M04 A3018 RMK AO2
Observed
Dec-7 @ 05:15 UTC
Wind
  • 350° at 3 KTS
Visibility
10 SM
Flight Rules
VFR
Cloud Levels
  • Clear skies
Temperature
C / 36°F
Dewpoint
-4°C / 25°F
Humidity
65%
Altimeter
30.18" Hg
Pressure
1022.02 hPa
Previous

1 hour ago

KCKZ 070455Z AUTO 36006KT 10SM CLR 02/M04 A3018 RMK AO2
Observed
Dec-7 @ 04:55 UTC
Wind
  • 360° at 6 KTS
Visibility
10 SM
Flight Rules
VFR
Cloud Levels
  • Clear skies
Temperature
C / 36°F
Dewpoint
-4°C / 25°F
Humidity
65%
Altimeter
30.18" Hg
Pressure
1022.02 hPa